Meiringen, Switzerland
Current Conditions -  °F | °C
As of 9:50 AM on Saturday 29 Nov 2014 (Local Time) from LSMM Reporting Station
Moderate Fog Moderate Fog  
Wind Chill: 38°   Ceiling: Unl
Heat Index: 41°   Visibility: 0.34mi
Dew Point: 41°   Wind: 5mph
Humidity: 100%   Direction: 270°W
Pressure: 29.85"   Gusts: NA
Location:  46.73°N, 8.19°E
Report Text: LSMM 290850Z AUTO 27004KT 240V330 0550NDV R10/1000V1400N R28/0600V0800D FG SCT002 05/05 Q1011 RMK RED
Loading
Personal Weather Stations






























Interactive Weather Map New forecast layout! Learn more

10-Day Weather Forecast

Advertisements
Track Severe Weather on mobile